Time;durP1;ratioP1;P1;durP2;ratioP2;P2;SDS_P1;SDS_P2;PMS_P1;PMS_P2;Temp;Humidity;BMP_temperature;BMP_pressure;BME280_temperature;BME280_humidity;BME280_pressure;Samples;Min_cycle;Max_cycle;Signal;HPM_P1;HPM_P2
2022/06/07 00:01:24;;;;;;;6.47;4.05;;;16.80;99.90;;;;;;5069955;28;20130;-74
2022/06/07 00:03:49;;;;;;;6.88;4.10;;;16.90;99.90;;;;;;5067949;28;20040;-73
2022/06/07 00:06:15;;;;;;;7.35;4.30;;;17.00;99.90;;;;;;5066792;28;20500;-75
2022/06/07 00:08:41;;;;;;;8.10;4.15;;;16.90;99.90;;;;;;5069029;28;20043;-75
2022/06/07 00:11:07;;;;;;;7.15;4.07;;;17.00;99.90;;;;;;5068405;28;20037;-74
2022/06/07 00:13:32;;;;;;;6.05;4.20;;;16.90;99.90;;;;;;5067579;28;20028;-74
2022/06/07 00:15:58;;;;;;;7.82;4.50;;;16.80;99.90;;;;;;5064508;28;20029;-74
2022/06/07 00:18:24;;;;;;;5.82;3.92;;;16.80;99.90;;;;;;5070058;28;20044;-75
2022/06/07 00:20:50;;;;;;;8.90;4.00;;;16.80;99.90;;;;;;5068733;28;20040;-75
2022/06/07 00:23:18;;;;;;;8.13;4.45;;;16.80;99.90;;;;;;5070911;28;20120;-75
2022/06/07 00:25:46;;;;;;;7.55;4.22;;;16.80;99.90;;;;;;5070098;28;20025;-72
2022/06/07 00:28:12;;;;;;;10.27;4.68;;;16.80;99.90;;;;;;5067906;28;20032;-74
2022/06/07 00:30:38;;;;;;;13.30;4.80;;;16.80;99.90;;;;;;5066787;28;20381;-74
2022/06/07 00:33:04;;;;;;;7.45;4.47;;;16.80;99.90;;;;;;5065343;28;20108;-74
2022/06/07 00:35:30;;;;;;;6.10;4.07;;;16.90;99.90;;;;;;5067588;28;20035;-74
2022/06/07 00:37:55;;;;;;;6.43;3.72;;;16.90;99.90;;;;;;5069358;28;20062;-74
2022/06/07 00:40:21;;;;;;;13.30;4.20;;;16.80;99.90;;;;;;5069209;28;20060;-74
2022/06/07 00:42:47;;;;;;;7.13;4.38;;;16.80;99.90;;;;;;5068624;28;20435;-72
2022/06/07 00:45:19;;;;;;;5.72;3.75;;;16.80;99.90;;;;;;5068989;28;20372;-73
2022/06/07 00:47:47;;;;;;;7.13;3.63;;;16.70;99.90;;;;;;5042719;28;20032;-72
2022/06/07 00:50:24;;;;;;;8.35;4.00;;;16.70;99.90;;;;;;5067767;28;20029;-74
2022/06/07 00:52:50;;;;;;;5.43;3.80;;;16.70;99.90;;;;;;5065303;28;20048;-74
2022/06/07 00:55:17;;;;;;;10.13;4.63;;;16.70;99.90;;;;;;5051186;28;20090;-74
2022/06/07 00:57:43;;;;;;;10.45;4.28;;;16.70;99.90;;;;;;5066396;28;20137;-74
2022/06/07 01:00:12;;;;;;;9.27;4.20;;;16.60;99.90;;;;;;5067972;28;20056;-74
2022/06/07 01:02:38;;;;;;;9.40;4.28;;;16.60;99.90;;;;;;5066804;28;20040;-75
2022/06/07 01:05:04;;;;;;;8.85;4.15;;;16.50;99.90;;;;;;5068246;28;20114;-73
2022/06/07 01:12:58;;;;;;;6.32;3.97;;;16.30;99.90;;;;;;5066175;28;20123;-75
2022/06/07 01:15:24;;;;;;;6.30;4.03;;;16.30;99.90;;;;;;5068969;28;20043;-74
2022/06/07 01:17:49;;;;;;;9.20;4.13;;;16.30;99.90;;;;;;5064512;28;20120;-72
2022/06/07 01:20:15;;;;;;;7.22;4.10;;;16.30;99.90;;;;;;5067833;28;20104;-74
2022/06/07 01:22:41;;;;;;;10.30;3.95;;;16.20;99.90;;;;;;5070279;28;20029;-73
2022/06/07 01:25:07;;;;;;;6.68;3.88;;;16.20;99.90;;;;;;5066335;28;20025;-74
2022/06/07 01:27:33;;;;;;;8.05;3.83;;;16.20;99.90;;;;;;5070185;28;20032;-75
2022/06/07 01:29:59;;;;;;;5.53;3.33;;;16.20;99.90;;;;;;5067256;28;20080;-75
2022/06/07 01:32:25;;;;;;;6.82;3.72;;;16.30;99.90;;;;;;5067208;28;20131;-74
2022/06/07 01:34:50;;;;;;;7.45;3.70;;;16.20;99.90;;;;;;5059104;28;20067;-72
2022/06/07 01:37:18;;;;;;;5.32;3.60;;;16.20;99.90;;;;;;5068024;28;20045;-74
2022/06/07 01:42:29;;;;;;;8.90;3.80;;;16.00;99.90;;;;;;5067960;28;20038;-74
2022/06/07 01:44:56;;;;;;;6.50;3.40;;;15.90;99.90;;;;;;5063836;28;20028;-75
2022/06/07 01:47:27;;;;;;;7.20;3.70;;;15.90;99.90;;;;;;5064689;28;20037;-74
2022/06/07 01:49:54;;;;;;;6.10;3.47;;;15.90;99.90;;;;;;5059325;28;20025;-74
2022/06/07 01:52:24;;;;;;;6.35;3.58;;;15.90;99.90;;;;;;5068128;28;20025;-74
2022/06/07 01:54:53;;;;;;;6.30;3.28;;;15.90;99.90;;;;;;5065412;28;20061;-72
2022/06/07 01:57:20;;;;;;;7.22;3.60;;;15.90;99.90;;;;;;5068694;28;20086;-75
2022/06/07 01:59:46;;;;;;;7.45;3.33;;;15.90;99.90;;;;;;5064255;28;20028;-74
2022/06/07 02:02:13;;;;;;;5.45;3.30;;;15.90;99.90;;;;;;5057406;28;20036;-74
2022/06/07 02:04:40;;;;;;;4.47;2.67;;;15.80;99.90;;;;;;5048737;28;20037;-73
2022/06/07 02:07:07;;;;;;;10.77;3.85;;;15.80;99.90;;;;;;5057982;28;20125;-74
2022/06/07 02:09:34;;;;;;;6.97;3.05;;;15.80;99.90;;;;;;5066767;28;20087;-74
2022/06/07 02:12:00;;;;;;;5.40;2.90;;;15.80;99.90;;;;;;5066354;28;20036;-75
2022/06/07 02:14:26;;;;;;;8.65;3.28;;;15.70;99.90;;;;;;5068254;28;20032;-74
2022/06/07 02:16:52;;;;;;;6.90;3.00;;;15.70;99.90;;;;;;5065673;28;20036;-72
2022/06/07 02:19:18;;;;;;;4.80;2.65;;;15.60;99.90;;;;;;5060160;28;20516;-74
2022/06/07 02:21:43;;;;;;;4.15;2.95;;;15.50;99.90;;;;;;5066742;28;20550;-75
2022/06/07 02:24:10;;;;;;;10.77;3.10;;;15.40;99.90;;;;;;5062298;28;20028;-75
2022/06/07 02:26:48;;;;;;;6.00;3.17;;;15.40;99.90;;;;;;5064722;28;20036;-74
2022/06/07 02:29:25;;;;;;;12.43;2.85;;;15.40;99.90;;;;;;5048461;28;20070;-74
2022/06/07 02:31:59;;;;;;;4.53;3.10;;;15.40;99.90;;;;;;5062821;28;20086;-72
2022/06/07 02:34:25;;;;;;;7.75;2.78;;;15.30;99.90;;;;;;5063872;28;20036;-74
2022/06/07 02:36:55;;;;;;;4.47;2.80;;;15.30;99.90;;;;;;5067973;28;20556;-71
2022/06/07 02:39:21;;;;;;;8.43;3.03;;;15.20;99.90;;;;;;5065552;28;20040;-73
2022/06/07 02:41:48;;;;;;;6.60;2.90;;;15.30;99.90;;;;;;5048984;28;20057;-75
2022/06/07 02:44:14;;;;;;;6.35;3.10;;;15.20;99.90;;;;;;5061194;28;20024;-75
2022/06/07 02:46:40;;;;;;;5.85;2.95;;;15.20;99.90;;;;;;5063936;28;20043;-74
2022/06/07 02:49:06;;;;;;;4.28;3.10;;;15.10;99.90;;;;;;5064926;28;20051;-75
2022/06/07 02:51:33;;;;;;;5.90;2.90;;;15.10;99.90;;;;;;5063523;28;20098;-74
2022/06/07 02:53:58;;;;;;;4.32;3.03;;;15.00;99.90;;;;;;5064694;28;20028;-71
2022/06/07 02:56:24;;;;;;;7.07;2.90;;;15.00;99.90;;;;;;5055827;28;20029;-74
2022/06/07 02:58:50;;;;;;;8.18;3.00;;;15.00;99.90;;;;;;5051143;28;20040;-75
2022/06/07 03:01:16;;;;;;;4.45;2.60;;;15.00;99.90;;;;;;5060533;28;20746;-74
2022/06/07 03:03:41;;;;;;;6.65;2.65;;;14.90;99.90;;;;;;5068671;28;20043;-74
2022/06/07 03:06:08;;;;;;;4.10;2.97;;;15.00;99.90;;;;;;5050863;28;20115;-74
2022/06/07 03:08:34;;;;;;;9.10;3.13;;;14.90;99.90;;;;;;5048852;28;20086;-75
2022/06/07 03:11:00;;;;;;;8.15;3.17;;;15.00;99.90;;;;;;5053865;28;20430;-75
2022/06/07 03:13:26;;;;;;;7.75;3.13;;;14.90;99.90;;;;;;5067829;28;20585;-75
2022/06/07 03:15:52;;;;;;;6.15;2.97;;;14.90;99.90;;;;;;5064775;28;20025;-71
2022/06/07 03:18:18;;;;;;;5.93;2.95;;;14.90;99.90;;;;;;5052618;28;20041;-75
2022/06/07 03:20:46;;;;;;;4.30;2.70;;;14.80;99.90;;;;;;5060580;28;20076;-76
2022/06/07 03:23:12;;;;;;;6.47;3.10;;;14.80;99.90;;;;;;5067688;28;20033;-74
2022/06/07 03:25:37;;;;;;;4.40;2.80;;;14.80;99.90;;;;;;5059207;28;20035;-74
2022/06/07 03:28:03;;;;;;;6.43;3.05;;;14.80;99.90;;;;;;5050489;28;20031;-75
2022/06/07 03:30:29;;;;;;;4.55;2.97;;;14.70;99.90;;;;;;5050735;28;20036;-73
2022/06/07 03:32:56;;;;;;;8.27;3.10;;;14.80;99.90;;;;;;5066652;28;20087;-71
2022/06/07 03:35:22;;;;;;;4.72;3.03;;;14.80;99.90;;;;;;5068169;28;20035;-75
2022/06/07 03:37:48;;;;;;;8.90;3.20;;;14.80;99.90;;;;;;5068118;28;20136;-75
2022/06/07 03:40:14;;;;;;;7.90;3.63;;;14.70;99.90;;;;;;5067596;28;20104;-75
2022/06/07 03:42:41;;;;;;;4.35;2.97;;;14.70;99.90;;;;;;5068212;28;20032;-75
2022/06/07 03:45:07;;;;;;;4.70;3.38;;;14.60;99.90;;;;;;5067492;28;20025;-74
2022/06/07 03:47:34;;;;;;;6.03;2.75;;;14.70;99.90;;;;;;5067374;28;20033;-75
2022/06/07 03:49:59;;;;;;;5.13;3.33;;;14.60;99.90;;;;;;5067328;28;20039;-76
2022/06/07 03:52:25;;;;;;;8.20;4.07;;;14.60;99.90;;;;;;5068499;28;20455;-74
2022/06/07 03:54:51;;;;;;;5.80;3.38;;;14.60;99.90;;;;;;5061644;28;20064;-73
2022/06/07 03:57:17;;;;;;;5.88;3.90;;;14.70;99.90;;;;;;5060739;28;20020;-73
2022/06/07 03:59:43;;;;;;;4.68;2.78;;;14.70;99.90;;;;;;5068059;28;20095;-75
2022/06/07 04:02:09;;;;;;;5.57;3.08;;;14.70;99.90;;;;;;5066286;28;20374;-75
2022/06/07 04:04:36;;;;;;;6.28;3.17;;;14.80;99.90;;;;;;5068092;28;20028;-76
2022/06/07 04:09:45;;;;;;;5.82;2.83;;;14.80;99.90;;;;;;5067828;28;20027;-76
2022/06/07 04:12:14;;;;;;;5.35;2.80;;;14.90;99.90;;;;;;5066980;28;20040;-74
2022/06/07 04:14:42;;;;;;;9.18;3.55;;;14.90;99.90;;;;;;5067804;28;20497;-76
2022/06/07 04:17:08;;;;;;;4.55;3.30;;;14.90;99.90;;;;;;5066129;28;20079;-76
2022/06/07 04:19:35;;;;;;;9.02;2.67;;;15.00;99.90;;;;;;5067930;28;20029;-76
2022/06/07 04:22:02;;;;;;;7.53;2.70;;;15.00;99.90;;;;;;5067147;28;20745;-71
2022/06/07 04:24:28;;;;;;;3.70;2.70;;;15.10;99.90;;;;;;5070527;28;20386;-75
2022/06/07 04:26:53;;;;;;;4.93;2.80;;;15.20;99.90;;;;;;5069145;28;20039;-76
2022/06/07 04:29:19;;;;;;;5.82;2.85;;;15.20;99.90;;;;;;5068662;28;20608;-75
2022/06/07 04:31:45;;;;;;;7.10;2.97;;;15.20;99.90;;;;;;5062539;28;20053;-75
2022/06/07 04:34:11;;;;;;;6.40;2.90;;;15.20;99.90;;;;;;5063230;28;20134;-74
2022/06/07 04:36:37;;;;;;;4.85;2.70;;;15.20;99.90;;;;;;5066235;28;20085;-75
2022/06/07 04:39:05;;;;;;;4.60;2.85;;;15.20;99.90;;;;;;5065204;28;20410;-76
2022/06/07 04:41:31;;;;;;;8.50;3.10;;;15.20;99.90;;;;;;5069876;28;20055;-75
2022/06/07 04:43:57;;;;;;;5.72;2.78;;;15.20;99.90;;;;;;5069696;28;20033;-74
2022/06/07 04:46:25;;;;;;;6.10;2.78;;;15.20;99.90;;;;;;5060241;28;20033;-75
2022/06/07 04:48:52;;;;;;;4.93;2.80;;;15.10;99.90;;;;;;5067320;28;20249;-74
2022/06/07 04:51:21;;;;;;;8.77;2.70;;;15.10;99.90;;;;;;5069108;28;20251;-74
2022/06/07 04:53:48;;;;;;;4.93;2.67;;;15.00;99.90;;;;;;5066459;28;20154;-75
2022/06/07 04:56:20;;;;;;;4.65;2.67;;;15.00;99.90;;;;;;5069428;28;20055;-77
2022/06/07 04:58:46;;;;;;;7.82;3.22;;;15.00;99.90;;;;;;5049785;28;20587;-73
2022/06/07 05:01:15;;;;;;;4.60;2.95;;;15.00;99.90;;;;;;5068712;28;20737;-75
2022/06/07 05:03:41;;;;;;;9.10;2.70;;;15.00;99.90;;;;;;5069168;28;20047;-75
2022/06/07 05:06:29;;;;;;;4.78;2.80;;;15.00;99.90;;;;;;5048795;28;20407;-76
2022/06/07 05:08:58;;;;;;;7.90;2.78;;;15.00;99.90;;;;;;5049278;28;20037;-76
2022/06/07 05:11:24;;;;;;;4.88;3.00;;;15.00;99.90;;;;;;5048802;28;20163;-76
2022/06/07 05:13:54;;;;;;;5.10;2.72;;;15.00;99.90;;;;;;5051732;28;20035;-76
2022/06/07 05:16:21;;;;;;;6.03;3.10;;;15.00;99.90;;;;;;5054879;28;20242;-74
2022/06/07 05:18:51;;;;;;;3.47;2.60;;;15.00;99.90;;;;;;5051417;28;20064;-74
2022/06/07 05:21:18;;;;;;;3.72;2.40;;;15.00;99.90;;;;;;5058543;28;20115;-75
2022/06/07 05:23:44;;;;;;;6.80;2.75;;;15.00;99.90;;;;;;5063710;28;20036;-76
2022/06/07 05:26:37;;;;;;;8.15;2.97;;;15.00;99.90;;;;;;5049228;28;20417;-80
2022/06/07 05:29:04;;;;;;;5.75;2.60;;;15.00;99.90;;;;;;5062796;28;20063;-73
2022/06/07 05:31:30;;;;;;;4.85;2.70;;;15.10;99.90;;;;;;5067687;28;20091;-78
2022/06/07 05:33:56;;;;;;;3.63;2.47;;;15.10;99.90;;;;;;5059399;28;20796;-78
2022/06/07 05:36:22;;;;;;;7.65;2.92;;;15.10;99.90;;;;;;5063939;28;20055;-78
2022/06/07 05:38:48;;;;;;;5.32;2.65;;;15.10;99.90;;;;;;5050359;28;20040;-78
2022/06/07 05:41:19;;;;;;;3.70;2.67;;;15.10;99.90;;;;;;5068317;28;20115;-79
2022/06/07 05:43:45;;;;;;;7.20;2.78;;;15.00;99.90;;;;;;5068511;28;20037;-78
2022/06/07 05:46:10;;;;;;;9.00;2.85;;;15.00;99.90;;;;;;5048756;28;20045;-77
2022/06/07 05:48:36;;;;;;;7.60;2.65;;;15.00;99.90;;;;;;5068756;28;20038;-77
2022/06/07 05:51:03;;;;;;;4.97;2.78;;;15.10;99.90;;;;;;5065588;28;20458;-73
2022/06/07 05:53:29;;;;;;;8.30;2.25;;;15.10;99.90;;;;;;5065439;28;20021;-76
2022/06/07 05:55:54;;;;;;;4.18;2.40;;;15.20;99.90;;;;;;5064159;28;20411;-76
2022/06/07 05:58:20;;;;;;;5.55;2.63;;;15.20;99.90;;;;;;5052624;28;20782;-76
2022/06/07 06:00:46;;;;;;;4.07;2.50;;;15.30;99.90;;;;;;5061737;28;20059;-75
2022/06/07 06:03:12;;;;;;;6.75;2.75;;;15.30;99.90;;;;;;5067647;28;20116;-76
2022/06/07 06:05:45;;;;;;;4.18;2.22;;;15.30;99.90;;;;;;5050081;28;20418;-76
2022/06/07 06:11:18;;;;;;;4.03;2.75;;;15.30;99.90;;;;;;5067841;28;20101;-76
2022/06/07 06:13:44;;;;;;;3.80;2.40;;;15.40;99.90;;;;;;5067646;28;20055;-77
2022/06/07 06:16:14;;;;;;;7.55;2.90;;;15.50;99.90;;;;;;5066786;28;20463;-76
2022/06/07 06:18:40;;;;;;;3.95;2.15;;;15.60;99.90;;;;;;5066076;28;20040;-76
2022/06/07 06:21:07;;;;;;;5.95;2.38;;;15.60;99.90;;;;;;5067458;28;20795;-73
2022/06/07 06:23:33;;;;;;;3.30;2.13;;;15.70;99.90;;;;;;5066969;28;20021;-76
2022/06/07 06:25:59;;;;;;;4.63;2.03;;;15.70;99.90;;;;;;5030280;28;20103;-77
2022/06/07 06:28:25;;;;;;;3.88;1.90;;;15.80;99.90;;;;;;5046754;28;20033;-77
2022/06/07 06:30:52;;;;;;;3.85;1.90;;;15.80;99.90;;;;;;5047599;28;20061;-76
2022/06/07 06:33:18;;;;;;;4.78;2.10;;;15.90;99.90;;;;;;5064184;28;20517;-76
2022/06/07 06:35:51;;;;;;;3.10;1.90;;;16.00;99.90;;;;;;5049496;28;20037;-76
2022/06/07 06:38:17;;;;;;;4.03;2.10;;;16.00;99.90;;;;;;5066723;28;20532;-76
2022/06/07 06:40:45;;;;;;;4.55;1.80;;;16.10;99.90;;;;;;5067488;28;20032;-76
2022/06/07 06:43:12;;;;;;;5.05;2.45;;;16.20;99.90;;;;;;5066811;28;20028;-75
2022/06/07 06:45:38;;;;;;;3.83;2.08;;;16.30;99.90;;;;;;5067574;28;20048;-76
2022/06/07 06:48:06;;;;;;;5.13;1.73;;;16.30;99.90;;;;;;5045674;28;20033;-75
2022/06/07 06:50:32;;;;;;;3.65;1.70;;;16.40;99.90;;;;;;5066065;28;20040;-75
2022/06/07 06:52:58;;;;;;;3.72;1.80;;;16.30;99.90;;;;;;5067621;28;20032;-76
2022/06/07 06:55:24;;;;;;;4.22;1.90;;;16.30;99.90;;;;;;5064650;28;20039;-76
2022/06/07 06:57:49;;;;;;;3.65;1.77;;;16.30;99.90;;;;;;5065782;28;20064;-76
2022/06/07 07:00:16;;;;;;;2.30;1.80;;;16.30;99.90;;;;;;5065773;28;20040;-76
2022/06/07 07:02:43;;;;;;;4.30;1.83;;;16.40;99.90;;;;;;5067154;28;20032;-76
2022/06/07 07:05:12;;;;;;;3.65;1.70;;;16.50;99.90;;;;;;5057035;28;20020;-73
2022/06/07 07:07:38;;;;;;;3.08;1.85;;;16.60;99.90;;;;;;5047023;28;20410;-74
2022/06/07 07:10:05;;;;;;;8.27;1.73;;;16.70;99.90;;;;;;5055016;28;20025;-75
2022/06/07 07:12:32;;;;;;;4.90;1.95;;;16.70;99.90;;;;;;5055441;28;20036;-74
2022/06/07 07:14:58;;;;;;;4.53;1.80;;;16.60;99.90;;;;;;5061316;28;20033;-72
2022/06/07 07:17:25;;;;;;;6.20;1.95;;;16.70;99.90;;;;;;5061775;28;20033;-72
2022/06/07 07:19:51;;;;;;;2.42;1.70;;;16.80;99.90;;;;;;5061254;28;20024;-76
2022/06/07 07:22:17;;;;;;;3.75;1.65;;;16.80;99.90;;;;;;5067195;28;20761;-76
2022/06/07 07:24:44;;;;;;;5.00;1.75;;;16.80;99.90;;;;;;5061730;28;20089;-77
2022/06/07 07:27:09;;;;;;;3.50;1.60;;;16.80;99.90;;;;;;5065859;28;20035;-74
2022/06/07 07:29:37;;;;;;;3.80;1.60;;;16.90;99.90;;;;;;5058301;28;20028;-75
2022/06/07 07:32:04;;;;;;;2.58;1.30;;;16.90;99.90;;;;;;5058310;28;20529;-71
2022/06/07 07:34:30;;;;;;;2.08;1.38;;;16.90;99.90;;;;;;5056590;28;20174;-71
2022/06/07 07:36:57;;;;;;;5.75;1.67;;;17.00;99.90;;;;;;5049345;28;20116;-70
2022/06/07 07:39:24;;;;;;;1.80;1.40;;;17.00;99.90;;;;;;5045697;28;20037;-70
2022/06/07 07:41:52;;;;;;;2.58;1.65;;;17.20;99.90;;;;;;5047053;28;20029;-70
2022/06/07 07:44:19;;;;;;;7.07;1.67;;;17.40;99.90;;;;;;5059656;28;20032;-70
2022/06/07 07:46:45;;;;;;;7.57;1.73;;;17.60;99.90;;;;;;5067127;28;20052;-70
2022/06/07 07:49:15;;;;;;;3.42;1.45;;;17.60;99.90;;;;;;5065908;28;20044;-68
2022/06/07 07:51:44;;;;;;;2.80;1.50;;;17.70;99.90;;;;;;5064882;28;20035;-70
2022/06/07 07:54:12;;;;;;;2.35;1.45;;;17.70;99.90;;;;;;5065782;28;20031;-68
2022/06/07 07:56:38;;;;;;;3.17;1.65;;;17.90;99.90;;;;;;5066385;28;20033;-69
2022/06/07 07:59:06;;;;;;;4.68;1.67;;;18.10;99.90;;;;;;5068898;28;20941;-70
2022/06/07 08:01:32;;;;;;;5.13;1.63;;;18.20;99.90;;;;;;5069830;28;20601;-69
2022/06/07 08:04:00;;;;;;;2.10;1.52;;;18.30;99.90;;;;;;5070919;28;20036;-70
2022/06/07 08:06:27;;;;;;;3.45;1.50;;;18.30;99.90;;;;;;5068692;28;20025;-70
2022/06/07 08:08:55;;;;;;;2.05;1.38;;;18.30;99.90;;;;;;5070408;28;20060;-70
2022/06/07 08:11:26;;;;;;;3.03;1.42;;;18.20;99.90;;;;;;5064866;28;20040;-70
2022/06/07 08:13:52;;;;;;;;;;;18.00;99.90;;;;;;5069350;28;20386;-69
2022/06/07 08:16:18;;;;;;;2.00;1.60;;;18.10;99.90;;;;;;5069399;28;19999;-69
2022/06/07 08:18:44;;;;;;;7.25;1.80;;;18.40;99.90;;;;;;5070037;28;20070;-70
2022/06/07 08:21:20;;;;;;;2.22;1.50;;;18.30;99.90;;;;;;5069125;28;20090;-70
2022/06/07 08:23:47;;;;;;;2.65;1.33;;;18.20;99.90;;;;;;5070030;28;20051;-69
2022/06/07 08:26:12;;;;;;;4.93;1.70;;;18.20;99.90;;;;;;5035276;28;20033;-68
2022/06/07 08:28:40;;;;;;;3.20;1.58;;;18.50;99.90;;;;;;5069250;28;20040;-70
2022/06/07 08:31:14;;;;;;;2.83;1.40;;;18.50;99.90;;;;;;5069868;28;20052;-70
2022/06/07 08:39:08;;;;;;;3.95;1.80;;;18.70;99.90;;;;;;5069964;28;20596;-70
2022/06/07 08:41:59;;;;;;;13.70;1.50;;;18.90;99.90;;;;;;5069070;28;20051;-69
2022/06/07 08:44:26;;;;;;;4.60;1.58;;;18.90;99.90;;;;;;5069070;28;20533;-70
2022/06/07 08:46:55;;;;;;;5.47;1.55;;;19.00;99.90;;;;;;5066187;28;20036;-69
2022/06/07 08:49:22;;;;;;;2.20;1.60;;;18.70;99.90;;;;;;5048895;28;20036;-70
2022/06/07 08:52:02;;;;;;;3.53;1.50;;;18.50;99.90;;;;;;5053304;28;20209;-70
2022/06/07 08:54:33;;;;;;;3.50;1.60;;;18.30;99.90;;;;;;5049143;28;20092;-70
2022/06/07 08:57:22;;;;;;;2.58;1.70;;;18.40;99.90;;;;;;5049495;28;20761;-70
2022/06/07 08:59:53;;;;;;;3.95;1.70;;;18.30;99.90;;;;;;5049615;28;20037;-70
2022/06/07 09:02:31;;;;;;;5.40;1.52;;;18.20;99.90;;;;;;5050882;28;20037;-69
2022/06/07 09:04:58;;;;;;;1.90;1.23;;;18.00;99.90;;;;;;5063225;28;20032;-70
2022/06/07 09:07:25;;;;;;;2.97;1.30;;;18.10;99.90;;;;;;5068514;28;20032;-70
2022/06/07 09:12:54;;;;;;;2.72;1.23;;;18.80;99.90;;;;;;5068293;28;20090;-70
2022/06/07 09:15:23;;;;;;;2.17;1.23;;;18.90;99.90;;;;;;5068749;28;20115;-68
2022/06/07 09:17:52;;;;;;;1.75;1.10;;;19.20;99.90;;;;;;5059320;28;20040;-70
2022/06/07 09:20:46;;;;;;;5.72;1.42;;;19.30;99.90;;;;;;5054032;28;20041;-69
2022/06/07 09:23:27;;;;;;;4.35;1.30;;;19.80;99.90;;;;;;5064715;28;20041;-69
2022/06/07 09:25:55;;;;;;;3.15;1.17;;;20.20;99.90;;;;;;5068751;28;20050;-70
2022/06/07 09:28:29;;;;;;;2.88;1.60;;;20.30;99.90;;;;;;5065907;28;20800;-69
2022/06/07 09:31:04;;;;;;;5.80;1.25;;;20.30;99.90;;;;;;5049018;28;20049;-69
2022/06/07 09:33:35;;;;;;;3.13;1.40;;;20.50;99.90;;;;;;5060573;28;20029;-70
2022/06/07 09:36:21;;;;;;;3.22;1.52;;;20.30;99.90;;;;;;5068810;28;20597;-70
2022/06/07 09:38:51;;;;;;;2.88;1.40;;;19.80;99.90;;;;;;5068907;28;20064;-70
2022/06/07 09:41:37;;;;;;;3.72;1.50;;;19.90;99.90;;;;;;5068565;28;20119;-69
2022/06/07 09:44:16;;;;;;;3.00;1.40;;;19.80;99.90;;;;;;5056988;28;20112;-70
2022/06/07 09:46:56;;;;;;;2.95;1.27;;;19.60;99.90;;;;;;5062885;28;20032;-70
2022/06/07 09:49:41;;;;;;;2.50;1.17;;;19.60;99.90;;;;;;5067816;28;20672;-70
2022/06/07 09:52:23;;;;;;;2.67;1.20;;;19.90;99.90;;;;;;5068540;28;20029;-70
2022/06/07 09:55:20;;;;;;;2.55;1.35;;;19.80;99.90;;;;;;5053396;28;20537;-70
2022/06/07 09:58:24;;;;;;;3.78;1.20;;;19.70;99.90;;;;;;5048932;28;20073;-70
2022/06/07 10:01:15;;;;;;;3.30;1.50;;;19.60;99.90;;;;;;5066912;28;20102;-69
2022/06/07 10:04:11;;;;;;;5.07;1.10;;;19.70;99.90;;;;;;5067862;28;20079;-69
2022/06/07 10:06:58;;;;;;;3.00;1.63;;;20.30;99.90;;;;;;5067922;28;20033;-70
2022/06/07 10:10:15;;;;;;;4.50;1.60;;;20.30;99.90;;;;;;5066035;28;20036;-69
2022/06/07 10:12:55;;;;;;;3.85;1.63;;;20.50;99.90;;;;;;5033098;28;20039;-69
2022/06/07 10:15:29;;;;;;;5.32;1.80;;;20.70;99.90;;;;;;5067859;28;20032;-69
2022/06/07 10:18:21;;;;;;;4.68;1.60;;;21.10;99.90;;;;;;5068328;28;20374;-69
2022/06/07 10:21:09;;;;;;;7.90;1.60;;;21.00;99.90;;;;;;5068167;28;20032;-69
2022/06/07 10:23:59;;;;;;;4.28;1.70;;;20.80;99.90;;;;;;5066135;28;20406;-69
2022/06/07 10:26:45;;;;;;;2.30;1.40;;;20.60;99.90;;;;;;5062248;28;20450;-69
2022/06/07 10:29:23;;;;;;;4.82;1.60;;;20.80;99.90;;;;;;5067523;28;20045;-70
2022/06/07 10:32:39;;;;;;;3.42;1.73;;;21.00;99.90;;;;;;5067432;28;20056;-69
2022/06/07 10:35:20;;;;;;;2.92;1.70;;;20.80;99.90;;;;;;5030223;28;20048;-70
2022/06/07 10:38:11;;;;;;;5.38;1.25;;;20.50;99.90;;;;;;5048183;28;20144;-69
2022/06/07 10:40:55;;;;;;;2.20;1.20;;;20.80;99.90;;;;;;5051198;28;20070;-69
2022/06/07 10:43:50;;;;;;;2.15;1.50;;;21.00;99.90;;;;;;5065764;28;20397;-68
2022/06/07 10:46:17;;;;;;;2.53;1.00;;;20.70;99.90;;;;;;5067622;28;20037;-69
2022/06/07 10:49:04;;;;;;;2.20;1.10;;;20.50;99.90;;;;;;5066944;28;20025;-69
2022/06/07 10:54:29;;;;;;;3.60;1.10;;;20.30;99.90;;;;;;5064104;28;20032;-69
2022/06/07 10:57:05;;;;;;;2.17;1.08;;;21.00;99.90;;;;;;5067163;28;20036;-70
2022/06/07 10:59:31;;;;;;;2.58;1.23;;;21.20;99.90;;;;;;5050846;28;20523;-70
2022/06/07 11:02:15;;;;;;;1.98;1.05;;;20.90;99.90;;;;;;5047868;28;20033;-70
2022/06/07 11:10:55;;;;;;;3.17;1.50;;;19.90;99.90;;;;;;5047674;28;20032;-70
2022/06/07 11:13:30;;;;;;;3.28;1.08;;;20.00;99.90;;;;;;5061414;28;20028;-69
2022/06/07 11:16:08;;;;;;;4.93;1.38;;;20.20;99.90;;;;;;5067442;28;20166;-70
2022/06/07 11:18:34;;;;;;;2.28;1.40;;;20.40;99.90;;;;;;5066665;28;20040;-71
2022/06/07 11:21:03;;;;;;;4.13;1.13;;;20.50;99.90;;;;;;5065271;28;20035;-71
2022/06/07 11:23:33;;;;;;;3.65;0.80;;;20.50;99.90;;;;;;5066110;28;20032;-70
2022/06/07 11:26:06;;;;;;;1.98;1.05;;;20.50;99.90;;;;;;5067418;28;20036;-70
2022/06/07 11:28:52;;;;;;;3.50;0.90;;;20.50;99.90;;;;;;5066669;28;20097;-70
2022/06/07 11:31:21;;;;;;;3.35;1.02;;;20.90;99.90;;;;;;5066121;28;20059;-71
2022/06/07 11:33:52;;;;;;;2.60;1.15;;;21.40;99.90;;;;;;5066685;28;20033;-71
2022/06/07 11:36:25;;;;;;;1.10;1.00;;;21.90;99.90;;;;;;5071534;28;20119;-70
2022/06/07 11:38:56;;;;;;;1.60;1.08;;;22.20;99.90;;;;;;5071089;28;20025;-70
2022/06/07 11:41:37;;;;;;;1.85;0.98;;;22.10;99.90;;;;;;5071032;28;20036;-69
2022/06/07 11:44:10;;;;;;;6.18;1.67;;;21.60;99.90;;;;;;5054815;28;20032;-70
2022/06/07 11:46:35;;;;;;;1.95;0.90;;;21.30;99.90;;;;;;5050568;28;20086;-70
2022/06/07 11:49:20;;;;;;;2.33;1.15;;;21.10;99.90;;;;;;5065485;28;20451;-70
2022/06/07 11:51:52;;;;;;;2.50;1.10;;;21.20;99.90;;;;;;5069996;28;20678;-70
2022/06/07 11:54:25;;;;;;;1.67;0.90;;;21.30;99.90;;;;;;5068776;28;20620;-70
2022/06/07 11:56:55;;;;;;;3.45;1.25;;;21.40;99.90;;;;;;5070880;28;20028;-70
2022/06/07 11:59:21;;;;;;;2.72;1.15;;;21.50;99.90;;;;;;5059897;28;20065;-70
2022/06/07 12:02:07;;;;;;;3.58;1.20;;;21.60;99.90;;;;;;5058785;28;20176;-70
2022/06/07 12:04:43;;;;;;;2.85;1.40;;;21.80;99.90;;;;;;5018798;28;20040;-69
2022/06/07 12:07:32;;;;;;;3.60;1.40;;;21.40;99.90;;;;;;5070835;28;20430;-68
2022/06/07 12:10:11;;;;;;;2.22;1.30;;;21.20;99.90;;;;;;5070242;28;20040;-70
2022/06/07 12:12:38;;;;;;;3.88;1.50;;;21.20;99.90;;;;;;5069821;28;20368;-70
2022/06/07 12:15:12;;;;;;;3.33;1.63;;;21.20;99.90;;;;;;5070420;28;20463;-70
2022/06/07 12:17:52;;;;;;;1.98;1.20;;;21.30;99.90;;;;;;5069063;28;20048;-70
2022/06/07 12:20:27;;;;;;;3.05;1.67;;;21.20;99.90;;;;;;5070670;28;20145;-70
2022/06/07 12:22:57;;;;;;;2.10;1.25;;;21.00;99.90;;;;;;5067337;28;20032;-69
2022/06/07 12:25:24;;;;;;;2.80;1.33;;;21.00;99.90;;;;;;5070506;28;20116;-69
2022/06/07 12:27:52;;;;;;;2.30;1.13;;;21.00;99.90;;;;;;5069519;28;20031;-70
2022/06/07 12:30:30;;;;;;;1.77;1.23;;;20.90;99.90;;;;;;5052510;28;20039;-69
2022/06/07 12:33:11;;;;;;;4.00;1.23;;;21.00;99.90;;;;;;5070157;28;20230;-70
2022/06/07 12:35:49;;;;;;;2.65;1.30;;;20.90;99.90;;;;;;5068362;28;20032;-69
2022/06/07 12:38:16;;;;;;;2.75;1.30;;;21.10;99.90;;;;;;5070224;28;20028;-69
2022/06/07 12:41:02;;;;;;;2.75;1.15;;;21.10;99.90;;;;;;5052656;28;20094;-68
2022/06/07 12:43:34;;;;;;;4.38;1.70;;;21.40;99.90;;;;;;5049859;28;20048;-67
2022/06/07 12:46:07;;;;;;;3.17;1.30;;;21.80;99.90;;;;;;5049812;28;20379;-69
2022/06/07 12:48:40;;;;;;;1.90;1.30;;;22.00;99.90;;;;;;5049776;28;20060;-69
2022/06/07 12:51:24;;;;;;;2.10;1.33;;;22.00;99.90;;;;;;5059822;28;20056;-68
2022/06/07 12:53:58;;;;;;;3.15;1.45;;;21.90;99.90;;;;;;5067387;28;20600;-69
2022/06/07 12:56:28;;;;;;;3.35;1.30;;;21.90;99.90;;;;;;5060864;28;20035;-68
2022/06/07 12:58:57;;;;;;;8.68;1.50;;;21.90;99.90;;;;;;5069602;28;20037;-69
2022/06/07 13:01:27;;;;;;;3.80;1.65;;;21.80;99.90;;;;;;5070106;28;20086;-69
2022/06/07 13:03:58;;;;;;;2.60;1.35;;;21.60;99.90;;;;;;5059922;28;20029;-68
2022/06/07 13:06:25;;;;;;;3.00;1.80;;;21.10;99.90;;;;;;5049968;28;20027;-69
2022/06/07 13:09:04;;;;;;;4.63;1.27;;;20.80;99.90;;;;;;5048924;28;20029;-69
2022/06/07 13:11:37;;;;;;;4.03;1.27;;;20.70;99.90;;;;;;5058457;28;20046;-66
2022/06/07 13:14:03;;;;;;;2.70;1.42;;;20.40;99.90;;;;;;5069642;28;20107;-69
2022/06/07 13:16:42;;;;;;;1.48;1.27;;;20.20;99.90;;;;;;5049359;28;20111;-67
2022/06/07 13:19:14;;;;;;;4.57;1.67;;;20.00;99.90;;;;;;5049442;28;20040;-68
2022/06/07 13:21:51;;;;;;;2.60;1.23;;;20.00;99.90;;;;;;5048588;28;20466;-68
2022/06/07 13:24:41;;;;;;;2.25;1.40;;;20.00;99.90;;;;;;5049615;28;20620;-68
2022/06/07 13:27:29;;;;;;;5.05;1.40;;;20.00;99.90;;;;;;5065154;28;20044;-69
2022/06/07 13:29:55;;;;;;;4.18;1.08;;;19.90;99.90;;;;;;5055211;28;20029;-69
2022/06/07 13:32:26;;;;;;;2.53;1.27;;;19.90;99.90;;;;;;5049219;28;20114;-69
2022/06/07 13:34:58;;;;;;;4.32;1.40;;;20.10;99.90;;;;;;5048226;28;20036;-69
2022/06/07 13:37:29;;;;;;;2.03;1.33;;;20.50;99.90;;;;;;5049109;28;20021;-69